sensor_id;sensor_type;location;lat;lon;timestamp;pressure;altitude;pressure_sealevel;temperature;humidity
6090;BME280;3073;42.660;23.316;2023-01-28T00:01:06;93875.25;;;1.02;100.00
6090;BME280;3073;42.660;23.316;2023-01-28T00:03:33;93866.53;;;0.85;100.00
6090;BME280;3073;42.660;23.316;2023-01-28T00:06:03;93872.53;;;1.03;100.00
6090;BME280;3073;42.660;23.316;2023-01-28T00:08:31;93874.63;;;0.87;100.00
6090;BME280;3073;42.660;23.316;2023-01-28T00:10:58;93884.13;;;1.11;100.00
6090;BME280;3073;42.660;23.316;2023-01-28T00:13:26;93885.69;;;1.12;100.00
6090;BME280;3073;42.660;23.316;2023-01-28T00:15:58;93892.06;;;1.08;100.00
6090;BME280;3073;42.660;23.316;2023-01-28T00:18:26;93887.41;;;0.98;100.00
6090;BME280;3073;42.660;23.316;2023-01-28T00:20:57;93896.69;;;0.98;100.00
6090;BME280;3073;42.660;23.316;2023-01-28T00:23:24;93897.28;;;1.00;100.00
6090;BME280;3073;42.660;23.316;2023-01-28T00:25:51;93903.06;;;1.07;100.00
6090;BME280;3073;42.660;23.316;2023-01-28T00:28:19;93897.06;;;0.95;100.00
6090;BME280;3073;42.660;23.316;2023-01-28T00:30:46;93902.69;;;1.10;100.00
6090;BME280;3073;42.660;23.316;2023-01-28T00:33:14;93901.72;;;1.11;100.00
6090;BME280;3073;42.660;23.316;2023-01-28T00:35:42;93911.34;;;0.94;100.00
6090;BME280;3073;42.660;23.316;2023-01-28T00:38:09;93914.63;;;0.88;100.00
6090;BME280;3073;42.660;23.316;2023-01-28T00:40:36;93910.00;;;0.79;100.00
6090;BME280;3073;42.660;23.316;2023-01-28T00:43:02;93913.63;;;0.63;100.00
6090;BME280;3073;42.660;23.316;2023-01-28T00:45:29;93921.78;;;0.91;100.00
6090;BME280;3073;42.660;23.316;2023-01-28T00:47:56;93917.72;;;0.97;100.00
6090;BME280;3073;42.660;23.316;2023-01-28T00:50:24;93913.25;;;0.73;100.00
6090;BME280;3073;42.660;23.316;2023-01-28T00:52:51;93916.75;;;0.85;100.00
6090;BME280;3073;42.660;23.316;2023-01-28T00:55:18;93915.56;;;0.68;100.00
6090;BME280;3073;42.660;23.316;2023-01-28T00:57:46;93920.06;;;0.98;100.00
6090;BME280;3073;42.660;23.316;2023-01-28T01:00:13;93919.88;;;1.07;100.00
6090;BME280;3073;42.660;23.316;2023-01-28T01:02:41;93916.31;;;0.62;100.00
6090;BME280;3073;42.660;23.316;2023-01-28T01:05:08;93914.81;;;0.93;100.00
6090;BME280;3073;42.660;23.316;2023-01-28T01:07:36;93917.53;;;0.85;100.00
6090;BME280;3073;42.660;23.316;2023-01-28T01:10:08;93917.91;;;0.82;100.00
6090;BME280;3073;42.660;23.316;2023-01-28T01:12:53;93913.63;;;0.63;100.00
6090;BME280;3073;42.660;23.316;2023-01-28T01:15:20;93914.78;;;0.74;100.00
6090;BME280;3073;42.660;23.316;2023-01-28T01:17:48;93914.81;;;0.87;100.00
6090;BME280;3073;42.660;23.316;2023-01-28T01:20:17;93925.03;;;0.72;100.00
6090;BME280;3073;42.660;23.316;2023-01-28T01:22:46;93926.22;;;0.83;100.00
6090;BME280;3073;42.660;23.316;2023-01-28T01:25:15;93922.31;;;0.74;100.00
6090;BME280;3073;42.660;23.316;2023-01-28T01:27:43;93925.41;;;0.63;100.00
6090;BME280;3073;42.660;23.316;2023-01-28T01:30:11;93920.38;;;0.63;100.00
6090;BME280;3073;42.660;23.316;2023-01-28T01:32:38;93917.28;;;0.61;100.00
6090;BME280;3073;42.660;23.316;2023-01-28T01:35:06;93922.53;;;0.79;100.00
6090;BME280;3073;42.660;23.316;2023-01-28T01:37:33;93933.16;;;0.94;100.00
6090;BME280;3073;42.660;23.316;2023-01-28T01:40:02;93928.88;;;0.62;100.00
6090;BME280;3073;42.660;23.316;2023-01-28T01:42:31;93925.19;;;0.58;100.00
6090;BME280;3073;42.660;23.316;2023-01-28T01:45:01;93925.78;;;0.60;100.00
6090;BME280;3073;42.660;23.316;2023-01-28T01:47:35;93924.41;;;0.57;100.00
6090;BME280;3073;42.660;23.316;2023-01-28T01:50:11;93927.50;;;0.52;100.00
6090;BME280;3073;42.660;23.316;2023-01-28T01:52:41;93927.53;;;0.66;100.00
6090;BME280;3073;42.660;23.316;2023-01-28T01:55:13;93930.59;;;0.68;100.00
6090;BME280;3073;42.660;23.316;2023-01-28T01:57:43;93927.53;;;0.72;100.00
6090;BME280;3073;42.660;23.316;2023-01-28T02:00:12;93918.03;;;0.61;100.00
6090;BME280;3073;42.660;23.316;2023-01-28T02:02:42;93933.28;;;0.46;100.00
6090;BME280;3073;42.660;23.316;2023-01-28T02:05:12;93926.09;;;0.43;100.00
6090;BME280;3073;42.660;23.316;2023-01-28T02:07:40;93936.56;;;0.60;100.00
6090;BME280;3073;42.660;23.316;2023-01-28T02:10:11;93930.13;;;0.38;100.00
6090;BME280;3073;42.660;23.316;2023-01-28T02:12:41;93937.53;;;0.59;100.00
6090;BME280;3073;42.660;23.316;2023-01-28T02:15:10;93939.06;;;0.60;100.00
6090;BME280;3073;42.660;23.316;2023-01-28T02:17:39;93940.78;;;0.46;100.00
6090;BME280;3073;42.660;23.316;2023-01-28T02:20:08;93943.84;;;0.35;100.00
6090;BME280;3073;42.660;23.316;2023-01-28T02:22:51;93936.63;;;0.67;100.00
6090;BME280;3073;42.660;23.316;2023-01-28T02:25:37;93935.63;;;0.61;100.00
6090;BME280;3073;42.660;23.316;2023-01-28T02:28:20;93941.75;;;0.45;100.00
6090;BME280;3073;42.660;23.316;2023-01-28T02:30:52;93940.19;;;0.44;100.00
6090;BME280;3073;42.660;23.316;2023-01-28T02:33:28;93948.09;;;0.41;100.00
6090;BME280;3073;42.660;23.316;2023-01-28T02:36:06;93933.66;;;0.50;100.00
6090;BME280;3073;42.660;23.316;2023-01-28T02:38:41;93946.81;;;0.65;100.00
6090;BME280;3073;42.660;23.316;2023-01-28T02:41:18;93947.59;;;0.66;100.00
6090;BME280;3073;42.660;23.316;2023-01-28T02:43:48;93947.53;;;0.46;100.00
6090;BME280;3073;42.660;23.316;2023-01-28T02:46:31;93949.13;;;0.60;100.00
6090;BME280;3073;42.660;23.316;2023-01-28T02:49:25;93941.72;;;0.39;100.00
6090;BME280;3073;42.660;23.316;2023-01-28T02:52:14;93939.06;;;0.60;100.00
6090;BME280;3073;42.660;23.316;2023-01-28T02:54:52;93947.53;;;0.46;100.00
6090;BME280;3073;42.660;23.316;2023-01-28T02:57:30;93944.03;;;0.40;100.00
6090;BME280;3073;42.660;23.316;2023-01-28T03:00:09;93949.28;;;0.45;100.00
6090;BME280;3073;42.660;23.316;2023-01-28T03:02:41;93951.34;;;0.35;100.00
6090;BME280;3073;42.660;23.316;2023-01-28T03:05:15;93949.50;;;0.57;100.00
6090;BME280;3073;42.660;23.316;2023-01-28T03:07:45;93955.66;;;0.55;100.00
6090;BME280;3073;42.660;23.316;2023-01-28T03:10:16;93954.91;;;0.61;100.00
6090;BME280;3073;42.660;23.316;2023-01-28T03:12:43;93958.22;;;0.68;100.00
6090;BME280;3073;42.660;23.316;2023-01-28T03:15:34;93958.06;;;0.76;100.00
6090;BME280;3073;42.660;23.316;2023-01-28T03:18:22;93956.63;;;0.53;100.00
6090;BME280;3073;42.660;23.316;2023-01-28T03:21:10;93962.63;;;0.52;100.00
6090;BME280;3073;42.660;23.316;2023-01-28T03:23:58;93959.16;;;0.60;100.00
6090;BME280;3073;42.660;23.316;2023-01-28T03:26:47;93961.75;;;0.80;100.00
6090;BME280;3073;42.660;23.316;2023-01-28T03:29:34;93963.50;;;0.86;100.00
6090;BME280;3073;42.660;23.316;2023-01-28T03:32:22;93966.50;;;0.62;100.00
6090;BME280;3073;42.660;23.316;2023-01-28T03:35:08;93959.97;;;0.74;100.00
6090;BME280;3073;42.660;23.316;2023-01-28T03:37:53;93964.28;;;0.93;100.00
6090;BME280;3073;42.660;23.316;2023-01-28T03:40:25;93962.69;;;0.72;100.00
6090;BME280;3073;42.660;23.316;2023-01-28T03:42:52;93961.72;;;0.67;100.00
6090;BME280;3073;42.660;23.316;2023-01-28T03:45:21;93959.97;;;0.74;100.00
6090;BME280;3073;42.660;23.316;2023-01-28T03:47:49;93961.88;;;0.59;100.00
6090;BME280;3073;42.660;23.316;2023-01-28T03:50:16;93970.34;;;0.58;100.00
6090;BME280;3073;42.660;23.316;2023-01-28T03:52:43;93974.19;;;0.53;100.00
6090;BME280;3073;42.660;23.316;2023-01-28T03:55:09;93966.09;;;0.51;100.00
6090;BME280;3073;42.660;23.316;2023-01-28T03:57:38;93972.69;;;0.59;100.00
6090;BME280;3073;42.660;23.316;2023-01-28T04:00:07;93975.03;;;0.74;100.00
6090;BME280;3073;42.660;23.316;2023-01-28T04:02:35;93971.06;;;0.38;100.00
6090;BME280;3073;42.660;23.316;2023-01-28T04:05:08;93978.41;;;0.40;100.00
6090;BME280;3073;42.660;23.316;2023-01-28T04:07:37;93977.06;;;0.50;100.00
6090;BME280;3073;42.660;23.316;2023-01-28T04:10:05;93987.88;;;0.51;100.00
6090;BME280;3073;42.660;23.316;2023-01-28T04:12:35;93984.16;;;0.40;100.00
6090;BME280;3073;42.660;23.316;2023-01-28T04:15:04;93990.69;;;0.28;100.00
6090;BME280;3073;42.660;23.316;2023-01-28T04:17:43;93985.19;;;0.52;100.00
6090;BME280;3073;42.660;23.316;2023-01-28T04:20:12;93984.25;;;0.60;100.00
6090;BME280;3073;42.660;23.316;2023-01-28T04:22:40;93982.19;;;0.77;100.00
6090;BME280;3073;42.660;23.316;2023-01-28T04:25:08;93991.53;;;0.42;100.00
6090;BME280;3073;42.660;23.316;2023-01-28T04:27:35;93992.72;;;0.52;100.00
6090;BME280;3073;42.660;23.316;2023-01-28T04:30:02;93993.25;;;0.41;100.00
6090;BME280;3073;42.660;23.316;2023-01-28T04:32:29;93998.69;;;0.51;100.00
6090;BME280;3073;42.660;23.316;2023-01-28T04:34:56;93998.63;;;0.32;100.00
6090;BME280;3073;42.660;23.316;2023-01-28T04:37:24;93997.09;;;0.37;100.00
6090;BME280;3073;42.660;23.316;2023-01-28T04:39:51;94009.22;;;0.34;100.00
6090;BME280;3073;42.660;23.316;2023-01-28T04:42:17;94011.28;;;0.24;100.00
6090;BME280;3073;42.660;23.316;2023-01-28T04:44:44;94012.38;;;0.42;100.00
6090;BME280;3073;42.660;23.316;2023-01-28T04:47:11;94012.75;;;0.39;100.00
6090;BME280;3073;42.660;23.316;2023-01-28T04:49:38;94018.66;;;0.25;100.00
6090;BME280;3073;42.660;23.316;2023-01-28T04:52:04;94013.81;;;0.24;100.00
6090;BME280;3073;42.660;23.316;2023-01-28T04:54:32;94022.72;;;0.26;100.00
6090;BME280;3073;42.660;23.316;2023-01-28T04:56:59;94022.03;;;0.11;100.00
6090;BME280;3073;42.660;23.316;2023-01-28T04:59:26;94017.69;;;0.26;100.00
6090;BME280;3073;42.660;23.316;2023-01-28T05:01:53;94026.78;;;0.34;100.00
6090;BME280;3073;42.660;23.316;2023-01-28T05:04:19;94023.88;;;0.30;100.00
6090;BME280;3073;42.660;23.316;2023-01-28T05:06:46;94025.34;;;0.18;100.00
6090;BME280;3073;42.660;23.316;2023-01-28T05:09:13;94031.06;;;0.06;100.00
6090;BME280;3073;42.660;23.316;2023-01-28T05:11:41;94028.72;;;0.04;100.00
6090;BME280;3073;42.660;23.316;2023-01-28T05:14:08;94037.22;;;0.03;100.00
6090;BME280;3073;42.660;23.316;2023-01-28T05:16:35;94045.03;;;0.21;100.00
6090;BME280;3073;42.660;23.316;2023-01-28T05:19:02;94042.03;;;0.05;100.00
6090;BME280;3073;42.660;23.316;2023-01-28T05:21:28;94040.81;;;0.22;100.00
6090;BME280;3073;42.660;23.316;2023-01-28T05:23:55;94049.56;;;0.32;100.00
6090;BME280;3073;42.660;23.316;2023-01-28T05:26:22;94049.88;;;-0.05;100.00
6090;BME280;3073;42.660;23.316;2023-01-28T05:28:51;94047.97;;;0.25;100.00
6090;BME280;3073;42.660;23.316;2023-01-28T05:31:17;94045.34;;;0.05;100.00
6090;BME280;3073;42.660;23.316;2023-01-28T05:33:44;94052.56;;;0.21;100.00
6090;BME280;3073;42.660;23.316;2023-01-28T05:36:11;94052.28;;;0.03;100.00
6090;BME280;3073;42.660;23.316;2023-01-28T05:38:38;94050.25;;;-0.08;100.00
6090;BME280;3073;42.660;23.316;2023-01-28T05:41:04;94062.00;;;-0.09;100.00
6090;BME280;3073;42.660;23.316;2023-01-28T05:43:32;94060.75;;;0.02;100.00
6090;BME280;3073;42.660;23.316;2023-01-28T05:46:00;94063.25;;;0.02;100.00
6090;BME280;3073;42.660;23.316;2023-01-28T05:48:27;94061.97;;;0.13;100.00
6090;BME280;3073;42.660;23.316;2023-01-28T05:50:54;94052.28;;;0.03;100.00
6090;BME280;3073;42.660;23.316;2023-01-28T05:53:21;94058.34;;;-0.06;100.00
6090;BME280;3073;42.660;23.316;2023-01-28T05:55:48;94063.47;;;0.07;100.00
6090;BME280;3073;42.660;23.316;2023-01-28T05:58:15;94066.25;;;-0.09;100.00
6090;BME280;3073;42.660;23.316;2023-01-28T06:00:42;94069.47;;;-0.15;100.00
6090;BME280;3073;42.660;23.316;2023-01-28T06:03:11;94069.84;;;-0.18;100.00
6090;BME280;3073;42.660;23.316;2023-01-28T06:05:38;94076.47;;;-0.11;100.00
6090;BME280;3073;42.660;23.316;2023-01-28T06:08:05;94082.41;;;0.10;100.00
6090;BME280;3073;42.660;23.316;2023-01-28T06:10:32;94079.19;;;-0.06;100.00
6090;BME280;3073;42.660;23.316;2023-01-28T06:12:58;94082.56;;;0.08;100.00
6090;BME280;3073;42.660;23.316;2023-01-28T06:15:26;94088.28;;;0.23;100.00
6090;BME280;3073;42.660;23.316;2023-01-28T06:17:53;94093.63;;;0.20;100.00
6090;BME280;3073;42.660;23.316;2023-01-28T06:20:21;94099.03;;;0.17;100.00
6090;BME280;3073;42.660;23.316;2023-01-28T06:22:49;94099.28;;;0.01;100.00
6090;BME280;3073;42.660;23.316;2023-01-28T06:25:16;94117.16;;;0.13;100.00
6090;BME280;3073;42.660;23.316;2023-01-28T06:27:43;94112.50;;;0.10;100.00
6090;BME280;3073;42.660;23.316;2023-01-28T06:30:11;94111.06;;;0.28;100.00
6090;BME280;3073;42.660;23.316;2023-01-28T06:32:38;94118.88;;;0.40;100.00
6090;BME280;3073;42.660;23.316;2023-01-28T06:35:05;94120.41;;;0.41;100.00
6090;BME280;3073;42.660;23.316;2023-01-28T06:37:33;94112.81;;;0.28;100.00
6090;BME280;3073;42.660;23.316;2023-01-28T06:40:00;94126.06;;;0.22;100.00
6090;BME280;3073;42.660;23.316;2023-01-28T06:42:27;94128.16;;;0.39;100.00
6090;BME280;3073;42.660;23.316;2023-01-28T06:44:54;94129.38;;;0.22;100.00
6090;BME280;3073;42.660;23.316;2023-01-28T06:47:21;94132.88;;;0.28;100.00
6090;BME280;3073;42.660;23.316;2023-01-28T06:49:48;94139.34;;;0.16;100.00
6090;BME280;3073;42.660;23.316;2023-01-28T06:52:15;94144.06;;;0.25;100.00
6090;BME280;3073;42.660;23.316;2023-01-28T06:54:43;94148.00;;;0.13;100.00
6090;BME280;3073;42.660;23.316;2023-01-28T06:57:10;94148.13;;;0.05;100.00
6090;BME280;3073;42.660;23.316;2023-01-28T06:59:37;94151.09;;;-0.06;100.00
6090;BME280;3073;42.660;23.316;2023-01-28T07:02:04;94152.31;;;-0.02;100.00
6090;BME280;3073;42.660;23.316;2023-01-28T07:04:31;94151.09;;;-0.06;100.00
6090;BME280;3073;42.660;23.316;2023-01-28T07:06:57;94156.00;;;0.23;100.00
6090;BME280;3073;42.660;23.316;2023-01-28T07:09:24;94165.63;;;-0.02;100.00
6090;BME280;3073;42.660;23.316;2023-01-28T07:11:52;94164.59;;;0.14;100.00
6090;BME280;3073;42.660;23.316;2023-01-28T07:14:19;94164.59;;;0.14;100.00
6090;BME280;3073;42.660;23.316;2023-01-28T07:16:46;94170.84;;;0.04;100.00
6090;BME280;3073;42.660;23.316;2023-01-28T07:19:13;94172.06;;;-0.14;100.00
6090;BME280;3073;42.660;23.316;2023-01-28T07:21:40;94184.19;;;-0.17;100.00
6090;BME280;3073;42.660;23.316;2023-01-28T07:24:07;94184.84;;;-0.09;100.00
6090;BME280;3073;42.660;23.316;2023-01-28T07:26:33;94183.47;;;0.10;100.00
6090;BME280;3073;42.660;23.316;2023-01-28T07:29:02;94180.41;;;0.15;100.00
6090;BME280;3073;42.660;23.316;2023-01-28T07:31:29;94188.72;;;0.36;100.00
6090;BME280;3073;42.660;23.316;2023-01-28T07:33:56;94194.38;;;0.24;100.00
6090;BME280;3073;42.660;23.316;2023-01-28T07:36:22;94193.09;;;0.07;100.00
6090;BME280;3073;42.660;23.316;2023-01-28T07:38:49;94202.63;;;0.18;100.00
6090;BME280;3073;42.660;23.316;2023-01-28T07:41:16;94194.34;;;-0.04;100.00
6090;BME280;3073;42.660;23.316;2023-01-28T07:43:43;94197.44;;;0.19;100.00
6090;BME280;3073;42.660;23.316;2023-01-28T07:46:11;94195.59;;;0.07;100.00
6090;BME280;3073;42.660;23.316;2023-01-28T07:48:38;94207.34;;;0.06;100.00
6090;BME280;3073;42.660;23.316;2023-01-28T07:51:05;94204.19;;;-0.03;100.00
6090;BME280;3073;42.660;23.316;2023-01-28T07:53:32;94208.84;;;0.22;100.00
6090;BME280;3073;42.660;23.316;2023-01-28T07:55:59;94207.94;;;0.29;100.00
6090;BME280;3073;42.660;23.316;2023-01-28T07:58:26;94212.19;;;0.29;100.00
6090;BME280;3073;42.660;23.316;2023-01-28T08:00:55;94209.38;;;0.17;100.00
6090;BME280;3073;42.660;23.316;2023-01-28T08:03:25;94210.31;;;0.37;100.00
6090;BME280;3073;42.660;23.316;2023-01-28T08:05:52;94214.69;;;0.50;100.00
6090;BME280;3073;42.660;23.316;2023-01-28T08:08:20;94222.69;;;0.39;100.00
6090;BME280;3073;42.660;23.316;2023-01-28T08:10:48;94218.66;;;0.66;100.00
6090;BME280;3073;42.660;23.316;2023-01-28T08:13:16;94217.94;;;0.72;100.00
6090;BME280;3073;42.660;23.316;2023-01-28T08:15:43;94222.78;;;0.73;100.00
6090;BME280;3073;42.660;23.316;2023-01-28T08:18:12;94226.97;;;0.45;100.00
6090;BME280;3073;42.660;23.316;2023-01-28T08:20:41;94227.19;;;0.71;100.00
6090;BME280;3073;42.660;23.316;2023-01-28T08:23:11;94222.13;;;0.65;100.00
6090;BME280;3073;42.660;23.316;2023-01-28T08:25:38;94230.34;;;0.80;100.00
6090;BME280;3073;42.660;23.316;2023-01-28T08:28:05;94235.06;;;0.89;100.00
6090;BME280;3073;42.660;23.316;2023-01-28T08:30:32;94233.97;;;0.77;100.00
6090;BME280;3073;42.660;23.316;2023-01-28T08:33:00;94234.63;;;0.86;100.00
6090;BME280;3073;42.660;23.316;2023-01-28T08:35:27;94226.03;;;0.74;100.00
6090;BME280;3073;42.660;23.316;2023-01-28T08:37:58;94234.72;;;0.71;100.00
6090;BME280;3073;42.660;23.316;2023-01-28T08:40:25;94229.13;;;0.69;100.00
6090;BME280;3073;42.660;23.316;2023-01-28T08:42:53;94233.94;;;0.98;100.00
6090;BME280;3073;42.660;23.316;2023-01-28T08:45:38;94236.78;;;1.17;100.00
6090;BME280;3073;42.660;23.316;2023-01-28T08:48:07;94232.91;;;1.21;100.00
6090;BME280;3073;42.660;23.316;2023-01-28T08:50:37;94225.13;;;1.09;100.00
6090;BME280;3073;42.660;23.316;2023-01-28T08:53:09;94236.38;;;1.13;100.00
6090;BME280;3073;42.660;23.316;2023-01-28T08:55:36;94237.00;;;1.28;100.00
6090;BME280;3073;42.660;23.316;2023-01-28T08:58:04;94238.41;;;1.37;100.00
6090;BME280;3073;42.660;23.316;2023-01-28T09:00:32;94239.53;;;1.28;100.00
6090;BME280;3073;42.660;23.316;2023-01-28T09:02:59;94235.19;;;1.43;100.00
6090;BME280;3073;42.660;23.316;2023-01-28T09:05:26;94239.53;;;1.69;100.00
6090;BME280;3073;42.660;23.316;2023-01-28T09:07:54;94233.50;;;1.64;100.00
6090;BME280;3073;42.660;23.316;2023-01-28T09:10:23;94244.44;;;1.43;100.00
6090;BME280;3073;42.660;23.316;2023-01-28T09:12:50;94245.38;;;1.35;100.00
6090;BME280;3073;42.660;23.316;2023-01-28T09:15:20;94240.47;;;1.27;100.00
6090;BME280;3073;42.660;23.316;2023-01-28T09:17:46;94249.44;;;1.36;100.00
6090;BME280;3073;42.660;23.316;2023-01-28T09:20:13;94249.88;;;1.46;100.00
6090;BME280;3073;42.660;23.316;2023-01-28T09:22:41;94249.34;;;1.58;100.00
6090;BME280;3073;42.660;23.316;2023-01-28T09:25:08;94254.34;;;1.58;100.00
6090;BME280;3073;42.660;23.316;2023-01-28T09:27:37;94242.88;;;1.42;100.00
6090;BME280;3073;42.660;23.316;2023-01-28T09:30:05;94247.28;;;1.27;100.00
6090;BME280;3073;42.660;23.316;2023-01-28T09:32:32;94236.44;;;1.26;100.00
6090;BME280;3073;42.660;23.316;2023-01-28T09:34:58;94248.09;;;1.40;100.00
6090;BME280;3073;42.660;23.316;2023-01-28T09:37:26;94236.06;;;1.29;100.00
6090;BME280;3073;42.660;23.316;2023-01-28T09:39:53;94240.72;;;1.32;100.00
6090;BME280;3073;42.660;23.316;2023-01-28T09:42:32;94249.13;;;1.52;100.00
6090;BME280;3073;42.660;23.316;2023-01-28T09:45:10;94243.63;;;1.77;100.00
6090;BME280;3073;42.660;23.316;2023-01-28T09:47:43;94241.22;;;1.55;100.00
6090;BME280;3073;42.660;23.316;2023-01-28T09:50:17;94241.38;;;1.54;100.00
6090;BME280;3073;42.660;23.316;2023-01-28T09:52:46;94248.56;;;1.57;100.00
6090;BME280;3073;42.660;23.316;2023-01-28T09:55:18;94241.66;;;1.66;100.00
6090;BME280;3073;42.660;23.316;2023-01-28T09:57:51;94236.75;;;1.51;100.00
6090;BME280;3073;42.660;23.316;2023-01-28T10:00:25;94238.78;;;1.75;100.00
6090;BME280;3073;42.660;23.316;2023-01-28T10:03:06;94241.41;;;1.61;100.00
6090;BME280;3073;42.660;23.316;2023-01-28T10:05:50;94236.22;;;1.62;100.00
6090;BME280;3073;42.660;23.316;2023-01-28T10:08:33;94235.22;;;1.57;100.00
6090;BME280;3073;42.660;23.316;2023-01-28T10:11:11;94236.22;;;1.62;100.00
6090;BME280;3073;42.660;23.316;2023-01-28T10:13:47;94240.03;;;1.51;100.00
6090;BME280;3073;42.660;23.316;2023-01-28T10:16:25;94234.31;;;1.71;100.00
6090;BME280;3073;42.660;23.316;2023-01-28T10:19:00;94236.00;;;1.64;100.00
6090;BME280;3073;42.660;23.316;2023-01-28T10:21:33;94229.28;;;1.71;100.00
6090;BME280;3073;42.660;23.316;2023-01-28T10:24:06;94229.75;;;1.40;100.00
6090;BME280;3073;42.660;23.316;2023-01-28T10:26:38;94229.97;;;1.51;100.00
6090;BME280;3073;42.660;23.316;2023-01-28T10:29:12;94231.97;;;1.63;100.00
6090;BME280;3073;42.660;23.316;2023-01-28T10:31:50;94238.34;;;1.65;100.00
6090;BME280;3073;42.660;23.316;2023-01-28T10:34:17;94238.09;;;1.53;100.00
6090;BME280;3073;42.660;23.316;2023-01-28T10:36:44;94230.00;;;1.58;100.00
6090;BME280;3073;42.660;23.316;2023-01-28T10:39:13;94229.75;;;1.40;100.00
6090;BME280;3073;42.660;23.316;2023-01-28T10:41:40;94234.38;;;1.36;100.00
6090;BME280;3073;42.660;23.316;2023-01-28T10:44:12;94237.97;;;1.27;100.00
6090;BME280;3073;42.660;23.316;2023-01-28T10:46:44;94232.78;;;1.29;100.00
6090;BME280;3073;42.660;23.316;2023-01-28T10:49:15;94228.69;;;1.69;100.00
6090;BME280;3073;42.660;23.316;2023-01-28T10:51:43;94230.44;;;1.75;100.00
6090;BME280;3073;42.660;23.316;2023-01-28T10:54:18;94235.31;;;1.76;100.00
6090;BME280;3073;42.660;23.316;2023-01-28T10:56:50;94238.44;;;1.91;100.00
6090;BME280;3073;42.660;23.316;2023-01-28T10:59:24;94227.75;;;1.76;100.00
6090;BME280;3073;42.660;23.316;2023-01-28T11:02:00;94230.84;;;1.78;100.00
6090;BME280;3073;42.660;23.316;2023-01-28T11:04:29;94223.63;;;2.23;100.00
6090;BME280;3073;42.660;23.316;2023-01-28T11:07:03;94236.56;;;2.13;100.00
6090;BME280;3073;42.660;23.316;2023-01-28T11:09:32;94232.38;;;1.66;100.00
6090;BME280;3073;42.660;23.316;2023-01-28T11:12:10;94236.34;;;2.08;100.00
6090;BME280;3073;42.660;23.316;2023-01-28T11:14:49;94225.53;;;2.14;100.00
6090;BME280;3073;42.660;23.316;2023-01-28T11:17:23;94224.31;;;1.97;100.00
6090;BME280;3073;42.660;23.316;2023-01-28T11:19:50;94232.38;;;1.73;100.00
6090;BME280;3073;42.660;23.316;2023-01-28T11:22:23;94220.84;;;1.91;100.00
6090;BME280;3073;42.660;23.316;2023-01-28T11:24:53;94223.88;;;1.80;100.00
6090;BME280;3073;42.660;23.316;2023-01-28T11:27:26;94235.47;;;1.68;100.00
6090;BME280;3073;42.660;23.316;2023-01-28T11:29:56;94222.13;;;1.74;100.00
6090;BME280;3073;42.660;23.316;2023-01-28T11:32:29;94211.88;;;1.69;100.00
6090;BME280;3073;42.660;23.316;2023-01-28T11:34:56;94217.47;;;1.71;100.00
6090;BME280;3073;42.660;23.316;2023-01-28T11:37:28;94221.16;;;1.69;100.00
6090;BME280;3073;42.660;23.316;2023-01-28T11:40:08;94218.84;;;1.74;100.00
6090;BME280;3073;42.660;23.316;2023-01-28T11:42:41;94224.63;;;1.68;100.00
6090;BME280;3073;42.660;23.316;2023-01-28T11:45:15;94218.97;;;1.52;100.00
6090;BME280;3073;42.660;23.316;2023-01-28T11:47:56;94219.97;;;1.65;100.00
6090;BME280;3073;42.660;23.316;2023-01-28T11:50:35;94202.50;;;1.43;100.00
6090;BME280;3073;42.660;23.316;2023-01-28T11:53:17;94218.81;;;1.67;100.00
6090;BME280;3073;42.660;23.316;2023-01-28T11:55:58;94218.31;;;1.85;100.00
6090;BME280;3073;42.660;23.316;2023-01-28T11:58:35;94213.28;;;1.91;100.00
6090;BME280;3073;42.660;23.316;2023-01-28T12:01:09;94213.47;;;1.77;100.00
6090;BME280;3073;42.660;23.316;2023-01-28T12:04:07;94223.72;;;1.82;100.00
6090;BME280;3073;42.660;23.316;2023-01-28T12:06:47;94218.78;;;1.61;100.00
6090;BME280;3073;42.660;23.316;2023-01-28T12:09:24;94217.72;;;1.76;100.00
6090;BME280;3073;42.660;23.316;2023-01-28T12:12:15;94216.94;;;1.76;100.00
6090;BME280;3073;42.660;23.316;2023-01-28T12:15:01;94224.53;;;2.02;100.00
6090;BME280;3073;42.660;23.316;2023-01-28T12:17:41;94225.50;;;2.07;100.00
6090;BME280;3073;42.660;23.316;2023-01-28T12:20:20;94226.28;;;2.08;100.00
6090;BME280;3073;42.660;23.316;2023-01-28T12:25:57;94221.44;;;2.00;100.00
6090;BME280;3073;42.660;23.316;2023-01-28T12:28:43;94217.75;;;1.96;100.00
6090;BME280;3073;42.660;23.316;2023-01-28T12:31:28;94227.19;;;1.81;100.00
6090;BME280;3073;42.660;23.316;2023-01-28T12:34:22;94223.16;;;1.86;100.00
6090;BME280;3073;42.660;23.316;2023-01-28T12:37:02;94228.22;;;2.06;100.00
6090;BME280;3073;42.660;23.316;2023-01-28T12:39:45;94229.75;;;2.07;100.00
6090;BME280;3073;42.660;23.316;2023-01-28T12:42:23;94236.31;;;1.95;100.00
6090;BME280;3073;42.660;23.316;2023-01-28T12:44:58;94238.25;;;1.93;100.00
6090;BME280;3073;42.660;23.316;2023-01-28T12:47:34;94240.59;;;2.01;100.00
6090;BME280;3073;42.660;23.316;2023-01-28T12:50:11;94241.88;;;1.84;100.00
6090;BME280;3073;42.660;23.316;2023-01-28T12:52:44;94247.88;;;1.76;100.00
6090;BME280;3073;42.660;23.316;2023-01-28T12:55:15;94245.59;;;1.88;100.00
6090;BME280;3073;42.660;23.316;2023-01-28T12:57:44;94250.63;;;1.94;100.00
6090;BME280;3073;42.660;23.316;2023-01-28T13:00:22;94251.53;;;1.74;100.00
6090;BME280;3073;42.660;23.316;2023-01-28T13:02:58;94252.38;;;2.00;100.00
6090;BME280;3073;42.660;23.316;2023-01-28T13:05:33;94245.53;;;1.75;100.00
6090;BME280;3073;42.660;23.316;2023-01-28T13:08:10;94250.91;;;1.65;100.00
6090;BME280;3073;42.660;23.316;2023-01-28T13:10:41;94250.41;;;1.83;100.00
6090;BME280;3073;42.660;23.316;2023-01-28T13:13:16;94253.09;;;1.75;100.00
6090;BME280;3073;42.660;23.316;2023-01-28T13:15:44;94256.78;;;1.79;100.00
6090;BME280;3073;42.660;23.316;2023-01-28T13:18:29;94264.56;;;1.97;100.00
6090;BME280;3073;42.660;23.316;2023-01-28T13:20:56;94264.19;;;1.93;100.00
6090;BME280;3073;42.660;23.316;2023-01-28T13:23:37;94262.69;;;2.12;100.00
6090;BME280;3073;42.660;23.316;2023-01-28T13:26:10;94267.88;;;2.04;100.00
6090;BME280;3073;42.660;23.316;2023-01-28T13:28:38;94265.38;;;2.11;100.00
6090;BME280;3073;42.660;23.316;2023-01-28T13:31:06;94270.63;;;2.09;100.00
6090;BME280;3073;42.660;23.316;2023-01-28T13:33:37;94265.34;;;1.97;100.00